Hovedside
METAR-TAF:

METAR-TAF

Lufthavner :

Ljungbyhed, Sverige

breddegrad: 56-04N, lengdegrad: 013-12E, høyde over havet: 43 m

Gjeldene værobservasjon

Denne rapporten ble laget for 41 minutter siden, klokken 20:20 UTC
Vind 11 kt fra Øst
Temperatur 13°C
Luftfuktighet 41%
Trykk 1015 hPa
Sikt 10 km eller mer

METAR: ESTL 232020Z AUTO 10011KT 9999 ///////// 13/00 Q1015

Tid: 23:01 (21:01 UTC)

Varsel

Denne rapporten ble laget for 9 timer og 57 minutter siden, klokken 11:04 UTC
Varsel gyldig fra 23. klokken 12 UTC til 23. klokken 15 UTC
Vind 22 kt fra Øst-sørøst
Sikt 10 km eller mer
ingen skyer under 1500 m og ingen bygeskyer
Midlertidig
fra 23. klokken 12 UTC til 23. klokken 15 UTC
Vind 25 kt fra Øst-sørøst med vindkast opp mot 38 kt

TAF: ESTL 231104Z 2312/2315 12022KT CAVOK TEMPO 2312/2315 11025G38KT

Værobservasjoner og værvarsel for over 4000 flyplasser (METAR- og TAF-rapporter).

Tilgjengelige stasjoner er representert av de røde og gule prikkene på kartet.

Hold musepekeren over prikken for å se navnet på stasjonen.

Klikk så for å se værobservasjoner og -varsler.

For å forandre kartet kan du klikke på den grønne knappen med svart kryss for å zoome inn, på den grønne knappen med strek for å zoome ut, eller på de grønne pilene for å se tilstøtende kart.


METAR-TAF: